TKY1CP EPZG-EPMO
Flight info
| Callsign | TKY1CP |
|---|---|
| Flight time | 0h 36m |
| Altitude | 27000 |
| Route | ADVAB P150 DOSIX |
| Aircraft | B738/M-SDE2E3FGHIRWXY/LB1 |
Departure
| Time | 2026-05-08 20:03 |
|---|---|
| Airport | Zielona Góra-Babimost Airport (EPZG) |
Arrival
| Time | 2026-05-08 20:40 |
|---|---|
| Airport | Warsaw Modlin Airport (EPMO) |
| Time | Latitude | Longitude | Altitude | Speed | Heading |
|---|---|---|---|---|---|
| 2026-05-08 19:42 | 52.14510 | 15.80925 | 204 ft | 0 kts | 326° |
| 2026-05-08 19:54 | 52.14512 | 15.80924 | 195 ft | 2 kts | 327° |
| 2026-05-08 19:54 | 52.14514 | 15.80917 | 195 ft | 4 kts | 62° |
| 2026-05-08 19:54 | 52.14513 | 15.80922 | 195 ft | 0 kts | 92° |
| 2026-05-08 19:55 | 52.14512 | 15.80894 | 209 ft | 4 kts | 42° |
| 2026-05-08 19:55 | 52.14500 | 15.80893 | 213 ft | 4 kts | 4° |
| 2026-05-08 19:55 | 52.14490 | 15.80890 | 211 ft | 0 kts | 65° |
| 2026-05-08 19:59 | 52.14490 | 15.80891 | 211 ft | 0 kts | 65° |
| 2026-05-08 19:59 | 52.14512 | 15.80967 | 202 ft | 17 kts | 65° |
| 2026-05-08 19:59 | 52.14574 | 15.81178 | 200 ft | 21 kts | 64° |
| 2026-05-08 19:59 | 52.14556 | 15.81336 | 200 ft | 15 kts | 150° |
| 2026-05-08 20:00 | 52.14466 | 15.81407 | 205 ft | 12 kts | 154° |
| 2026-05-08 20:00 | 52.14461 | 15.81411 | 203 ft | 0 kts | 155° |
| 2026-05-08 20:02 | 52.14433 | 15.81431 | 200 ft | 10 kts | 160° |
| 2026-05-08 20:02 | 52.14352 | 15.81436 | 201 ft | 13 kts | 194° |
| 2026-05-08 20:02 | 52.14287 | 15.81349 | 197 ft | 12 kts | 237° |
| 2026-05-08 20:03 | 52.14228 | 15.81147 | 202 ft | 45 kts | 245° |
| 2026-05-08 20:03 | 52.13986 | 15.80314 | 200 ft | 116 kts | 244° |
| 2026-05-08 20:03 | 52.13555 | 15.78839 | 245 ft | 166 kts | 248° |
| 2026-05-08 20:03 | 52.13050 | 15.77097 | 865 ft | 170 kts | 246° |
| 2026-05-08 20:04 | 52.12740 | 15.75277 | 1645 ft | 172 kts | 274° |
| 2026-05-08 20:04 | 52.13194 | 15.73530 | 2205 ft | 177 kts | 320° |
| 2026-05-08 20:04 | 52.14403 | 15.72847 | 2463 ft | 198 kts | 356° |
| 2026-05-08 20:04 | 52.15859 | 15.72771 | 2636 ft | 221 kts | 7° |
| 2026-05-08 20:05 | 52.17282 | 15.73864 | 3009 ft | 235 kts | 42° |
| 2026-05-08 20:05 | 52.18282 | 15.76057 | 3367 ft | 251 kts | 56° |
| 2026-05-08 20:05 | 52.19257 | 15.78465 | 4087 ft | 255 kts | 55° |
| 2026-05-08 20:05 | 52.20245 | 15.80846 | 4978 ft | 256 kts | 54° |
| 2026-05-08 20:06 | 52.21266 | 15.83283 | 5648 ft | 263 kts | 54° |
| 2026-05-08 20:06 | 52.22314 | 15.85771 | 6378 ft | 268 kts | 53° |
| 2026-05-08 20:06 | 52.23121 | 15.88545 | 7023 ft | 278 kts | 79° |
| 2026-05-08 20:06 | 52.23067 | 15.91703 | 7783 ft | 282 kts | 98° |
| 2026-05-08 20:07 | 52.22713 | 15.94886 | 8485 ft | 288 kts | 100° |
| 2026-05-08 20:07 | 52.22578 | 15.98167 | 9242 ft | 292 kts | 85° |
| 2026-05-08 20:07 | 52.22762 | 16.01502 | 9977 ft | 299 kts | 83° |
| 2026-05-08 20:07 | 52.22978 | 16.04910 | 10569 ft | 310 kts | 83° |
| 2026-05-08 20:08 | 52.23205 | 16.08550 | 10756 ft | 335 kts | 84° |
| 2026-05-08 20:08 | 52.23437 | 16.12469 | 10939 ft | 358 kts | 84° |
| 2026-05-08 20:08 | 52.23669 | 16.16624 | 11214 ft | 376 kts | 84° |
| 2026-05-08 20:08 | 52.23896 | 16.20915 | 11789 ft | 383 kts | 84° |
| 2026-05-08 20:09 | 52.24118 | 16.25270 | 12529 ft | 386 kts | 85° |
| 2026-05-08 20:09 | 52.24335 | 16.29649 | 13299 ft | 389 kts | 85° |
| 2026-05-08 20:09 | 52.24549 | 16.34067 | 14027 ft | 393 kts | 85° |
| 2026-05-08 20:09 | 52.24763 | 16.38542 | 14690 ft | 397 kts | 85° |
| 2026-05-08 20:10 | 52.24976 | 16.43055 | 15383 ft | 401 kts | 85° |
| 2026-05-08 20:10 | 52.25190 | 16.47619 | 16081 ft | 405 kts | 85° |
| 2026-05-08 20:10 | 52.25403 | 16.52221 | 16762 ft | 410 kts | 85° |
| 2026-05-08 20:10 | 52.25618 | 16.56884 | 17353 ft | 415 kts | 85° |
| 2026-05-08 20:11 | 52.25833 | 16.61610 | 18031 ft | 419 kts | 85° |
| 2026-05-08 20:11 | 52.26049 | 16.66386 | 18681 ft | 423 kts | 85° |
| 2026-05-08 20:11 | 52.26265 | 16.71197 | 19242 ft | 427 kts | 85° |
| 2026-05-08 20:11 | 52.26481 | 16.76047 | 19807 ft | 430 kts | 85° |
| 2026-05-08 20:12 | 52.26695 | 16.80929 | 20375 ft | 433 kts | 85° |
| 2026-05-08 20:12 | 52.26910 | 16.85848 | 20925 ft | 437 kts | 85° |
| 2026-05-08 20:12 | 52.27124 | 16.90815 | 21448 ft | 440 kts | 85° |
| 2026-05-08 20:12 | 52.27338 | 16.95823 | 21980 ft | 444 kts | 85° |
| 2026-05-08 20:13 | 52.27552 | 17.00873 | 22496 ft | 447 kts | 85° |
| 2026-05-08 20:13 | 52.27765 | 17.05955 | 22982 ft | 451 kts | 85° |
| 2026-05-08 20:13 | 52.27975 | 17.11033 | 23410 ft | 456 kts | 85° |
| 2026-05-08 20:13 | 52.28191 | 17.16287 | 23866 ft | 459 kts | 85° |
| 2026-05-08 20:14 | 52.28402 | 17.21500 | 24305 ft | 461 kts | 85° |
| 2026-05-08 20:14 | 52.28613 | 17.26751 | 24705 ft | 464 kts | 85° |
| 2026-05-08 20:14 | 52.28819 | 17.31959 | 25089 ft | 467 kts | 85° |
| 2026-05-08 20:14 | 52.29027 | 17.37261 | 25469 ft | 470 kts | 85° |
| 2026-05-08 20:15 | 52.29234 | 17.42596 | 25838 ft | 473 kts | 85° |
| 2026-05-08 20:15 | 52.29440 | 17.47981 | 26194 ft | 476 kts | 85° |
| 2026-05-08 20:15 | 52.29645 | 17.53384 | 26556 ft | 478 kts | 86° |
| 2026-05-08 20:15 | 52.29848 | 17.58827 | 26901 ft | 481 kts | 86° |
| 2026-05-08 20:16 | 52.30051 | 17.64307 | 27181 ft | 484 kts | 86° |
| 2026-05-08 20:16 | 52.30252 | 17.69826 | 27143 ft | 489 kts | 86° |
| 2026-05-08 20:16 | 52.30452 | 17.75376 | 27153 ft | 489 kts | 86° |
| 2026-05-08 20:16 | 52.30648 | 17.80914 | 27137 ft | 486 kts | 86° |
| 2026-05-08 20:17 | 52.30840 | 17.86410 | 27141 ft | 483 kts | 86° |
| 2026-05-08 20:17 | 52.31029 | 17.91888 | 27161 ft | 484 kts | 86° |
| 2026-05-08 20:17 | 52.31217 | 17.97390 | 27157 ft | 485 kts | 86° |
| 2026-05-08 20:17 | 52.31402 | 18.02894 | 27145 ft | 486 kts | 86° |
| 2026-05-08 20:18 | 52.31585 | 18.08409 | 27144 ft | 486 kts | 86° |
| 2026-05-08 20:18 | 52.31766 | 18.13933 | 27149 ft | 487 kts | 86° |
| 2026-05-08 20:18 | 52.31944 | 18.19444 | 27151 ft | 487 kts | 86° |
| 2026-05-08 20:18 | 52.32120 | 18.24990 | 27148 ft | 487 kts | 86° |
| 2026-05-08 20:19 | 52.32294 | 18.30549 | 26364 ft | 494 kts | 86° |
| 2026-05-08 20:19 | 52.32467 | 18.36133 | 25474 ft | 491 kts | 86° |
| 2026-05-08 20:19 | 52.32636 | 18.41704 | 24495 ft | 490 kts | 86° |
| 2026-05-08 20:19 | 52.32800 | 18.47224 | 23803 ft | 483 kts | 86° |
| 2026-05-08 20:20 | 52.32960 | 18.52688 | 22966 ft | 478 kts | 86° |
| 2026-05-08 20:20 | 52.33116 | 18.58074 | 22202 ft | 471 kts | 86° |
| 2026-05-08 20:20 | 52.33383 | 18.63343 | 21811 ft | 457 kts | 81° |
| 2026-05-08 20:20 | 52.33886 | 18.68398 | 21546 ft | 451 kts | 79° |
| 2026-05-08 20:21 | 52.34469 | 18.73517 | 21308 ft | 462 kts | 78° |
| 2026-05-08 20:21 | 52.35077 | 18.78702 | 21040 ft | 466 kts | 78° |
| 2026-05-08 20:21 | 52.35675 | 18.83891 | 20782 ft | 462 kts | 78° |
| 2026-05-08 20:21 | 52.36254 | 18.89060 | 20529 ft | 460 kts | 79° |
| 2026-05-08 20:22 | 52.36813 | 18.94201 | 20278 ft | 458 kts | 79° |
| 2026-05-08 20:22 | 52.37359 | 18.99327 | 20027 ft | 457 kts | 79° |
| 2026-05-08 20:22 | 52.37896 | 19.04435 | 19773 ft | 455 kts | 79° |
| 2026-05-08 20:22 | 52.38247 | 19.07809 | 19615 ft | 454 kts | 80° |
| 2026-05-08 20:23 | 52.38954 | 19.14627 | 19287 ft | 453 kts | 80° |
| 2026-05-08 20:23 | 52.39477 | 19.19700 | 19044 ft | 452 kts | 80° |
| 2026-05-08 20:23 | 52.39999 | 19.24776 | 18798 ft | 451 kts | 81° |
| 2026-05-08 20:23 | 52.40516 | 19.29825 | 18560 ft | 449 kts | 81° |
| 2026-05-08 20:24 | 52.41029 | 19.34858 | 18328 ft | 447 kts | 81° |
| 2026-05-08 20:24 | 52.41537 | 19.39850 | 18049 ft | 443 kts | 81° |
| 2026-05-08 20:24 | 52.42039 | 19.44817 | 17771 ft | 440 kts | 81° |
| 2026-05-08 20:24 | 52.42536 | 19.49747 | 17498 ft | 437 kts | 81° |
| 2026-05-08 20:25 | 52.43027 | 19.54645 | 17239 ft | 434 kts | 81° |
| 2026-05-08 20:25 | 52.43513 | 19.59512 | 16816 ft | 430 kts | 81° |
| 2026-05-08 20:25 | 52.43992 | 19.64327 | 16117 ft | 425 kts | 81° |
| 2026-05-08 20:25 | 52.44462 | 19.69072 | 15424 ft | 420 kts | 81° |
| 2026-05-08 20:26 | 52.44926 | 19.73778 | 14761 ft | 415 kts | 81° |
| 2026-05-08 20:26 | 52.45381 | 19.78416 | 14099 ft | 410 kts | 81° |
| 2026-05-08 20:26 | 52.45829 | 19.83001 | 13382 ft | 406 kts | 81° |
| 2026-05-08 20:26 | 52.46272 | 19.87554 | 12693 ft | 401 kts | 81° |
| 2026-05-08 20:27 | 52.46706 | 19.92034 | 12043 ft | 396 kts | 81° |
| 2026-05-08 20:27 | 52.47135 | 19.96474 | 11393 ft | 392 kts | 81° |
| 2026-05-08 20:27 | 52.47552 | 20.00814 | 11186 ft | 376 kts | 81° |
| 2026-05-08 20:27 | 52.47950 | 20.04965 | 11021 ft | 362 kts | 81° |
| 2026-05-08 20:28 | 52.48327 | 20.08920 | 10868 ft | 349 kts | 81° |
| 2026-05-08 20:28 | 52.48699 | 20.12836 | 10724 ft | 337 kts | 81° |
| 2026-05-08 20:28 | 52.49053 | 20.16565 | 10586 ft | 326 kts | 81° |
| 2026-05-08 20:28 | 52.49390 | 20.20141 | 10456 ft | 316 kts | 81° |
| 2026-05-08 20:29 | 52.49721 | 20.23651 | 10336 ft | 306 kts | 81° |
| 2026-05-08 20:29 | 52.50040 | 20.27054 | 10225 ft | 298 kts | 81° |
| 2026-05-08 20:29 | 52.50351 | 20.30378 | 10078 ft | 291 kts | 81° |
| 2026-05-08 20:29 | 52.50658 | 20.33662 | 9748 ft | 290 kts | 82° |
| 2026-05-08 20:30 | 52.50961 | 20.36922 | 9446 ft | 288 kts | 82° |
| 2026-05-08 20:30 | 52.51261 | 20.40168 | 9167 ft | 286 kts | 82° |
| 2026-05-08 20:30 | 52.51558 | 20.43380 | 8879 ft | 284 kts | 82° |
| 2026-05-08 20:30 | 52.51852 | 20.46578 | 8595 ft | 282 kts | 82° |
| 2026-05-08 20:31 | 52.52144 | 20.49754 | 8317 ft | 280 kts | 82° |
| 2026-05-08 20:31 | 52.52434 | 20.52908 | 8044 ft | 279 kts | 82° |
| 2026-05-08 20:31 | 52.52720 | 20.56041 | 7765 ft | 277 kts | 82° |
| 2026-05-08 20:31 | 52.53004 | 20.59164 | 7489 ft | 276 kts | 82° |
| 2026-05-08 20:32 | 52.53286 | 20.62280 | 7221 ft | 275 kts | 82° |
| 2026-05-08 20:32 | 52.53569 | 20.65362 | 6850 ft | 279 kts | 81° |
| 2026-05-08 20:32 | 52.53863 | 20.68521 | 6508 ft | 280 kts | 81° |
| 2026-05-08 20:32 | 52.54159 | 20.71696 | 6155 ft | 279 kts | 81° |
| 2026-05-08 20:33 | 52.54447 | 20.74797 | 5848 ft | 270 kts | 81° |
| 2026-05-08 20:33 | 52.54725 | 20.77787 | 5634 ft | 259 kts | 81° |
| 2026-05-08 20:33 | 52.54989 | 20.80650 | 5475 ft | 246 kts | 81° |
| 2026-05-08 20:33 | 52.55239 | 20.83377 | 5370 ft | 238 kts | 81° |
| 2026-05-08 20:34 | 52.55487 | 20.86081 | 5291 ft | 240 kts | 81° |
| 2026-05-08 20:34 | 52.55736 | 20.88814 | 5188 ft | 244 kts | 81° |
| 2026-05-08 20:34 | 52.55046 | 20.93860 | 4976 ft | 227 kts | 137° |
| 2026-05-08 20:35 | 52.53748 | 20.95240 | 4720 ft | 221 kts | 162° |
| 2026-05-08 20:35 | 52.52271 | 20.95778 | 4511 ft | 216 kts | 173° |
| 2026-05-08 20:35 | 52.50801 | 20.96132 | 4286 ft | 217 kts | 173° |
| 2026-05-08 20:35 | 52.49316 | 20.96061 | 4025 ft | 214 kts | 203° |
| 2026-05-08 20:36 | 52.48479 | 20.95217 | 3904 ft | 208 kts | 227° |
| 2026-05-08 20:36 | 52.47720 | 20.92460 | 3617 ft | 203 kts | 264° |
| 2026-05-08 20:36 | 52.47524 | 20.90147 | 3413 ft | 205 kts | 262° |
| 2026-05-08 20:36 | 52.47288 | 20.87893 | 3197 ft | 195 kts | 262° |
| 2026-05-08 20:37 | 52.47075 | 20.85740 | 2982 ft | 188 kts | 262° |
| 2026-05-08 20:37 | 52.46936 | 20.84307 | 2815 ft | 189 kts | 263° |
| 2026-05-08 20:37 | 52.46737 | 20.82221 | 2507 ft | 182 kts | 262° |
| 2026-05-08 20:37 | 52.46546 | 20.80227 | 2228 ft | 173 kts | 264° |
| 2026-05-08 20:38 | 52.46366 | 20.78336 | 1975 ft | 163 kts | 264° |
| 2026-05-08 20:38 | 52.46199 | 20.76574 | 1757 ft | 151 kts | 264° |
| 2026-05-08 20:38 | 52.46041 | 20.74909 | 1502 ft | 140 kts | 265° |
| 2026-05-08 20:38 | 52.45898 | 20.73398 | 1336 ft | 130 kts | 265° |
| 2026-05-08 20:39 | 52.45758 | 20.71897 | 1090 ft | 134 kts | 264° |
| 2026-05-08 20:39 | 52.45612 | 20.70390 | 881 ft | 134 kts | 263° |
| 2026-05-08 20:39 | 52.45457 | 20.68905 | 646 ft | 128 kts | 264° |
| 2026-05-08 20:39 | 52.45333 | 20.67511 | 435 ft | 119 kts | 264° |
| 2026-05-08 20:40 | 52.45222 | 20.66271 | 350 ft | 99 kts | 261° |
| 2026-05-08 20:40 | 52.45141 | 20.65400 | 350 ft | 54 kts | 262° |
| 2026-05-08 20:40 | 52.45089 | 20.64846 | 349 ft | 47 kts | 261° |
| 2026-05-08 20:40 | 52.45050 | 20.64471 | 354 ft | 22 kts | 255° |
| 2026-05-08 20:41 | 52.44930 | 20.64381 | 351 ft | 9 kts | 183° |
| 2026-05-08 20:41 | 52.44928 | 20.64381 | 351 ft | 0 kts | 183° |
| 2026-05-08 20:43 | 52.44902 | 20.64379 | 355 ft | 10 kts | 182° |
| 2026-05-08 20:43 | 52.44818 | 20.64375 | 352 ft | 13 kts | 182° |
| 2026-05-08 20:44 | 52.44733 | 20.64373 | 356 ft | 10 kts | 168° |
| 2026-05-08 20:44 | 52.44713 | 20.64466 | 350 ft | 10 kts | 79° |
| 2026-05-08 20:44 | 52.44728 | 20.64606 | 355 ft | 17 kts | 81° |
| 2026-05-08 20:44 | 52.44749 | 20.64823 | 350 ft | 20 kts | 81° |
| 2026-05-08 20:45 | 52.44769 | 20.65041 | 355 ft | 19 kts | 81° |
| 2026-05-08 20:45 | 52.44790 | 20.65244 | 350 ft | 18 kts | 80° |
| 2026-05-08 20:45 | 52.44798 | 20.65356 | 349 ft | 2 kts | 108° |
| 2026-05-08 20:45 | 52.44781 | 20.65366 | 353 ft | 3 kts | 176° |
| 2026-05-08 20:46 | 52.44760 | 20.65358 | 349 ft | 3 kts | 194° |
| 2026-05-08 20:46 | 52.44756 | 20.65356 | 349 ft | 0 kts | 194° |
| 2026-05-08 20:46 | 52.44755 | 20.65356 | 349 ft | 0 kts | 194° |